sensor_id;sensor_type;location;lat;lon;timestamp;P1;durP1;ratioP1;P2;durP2;ratioP2
1350;SDS011;669;50.206;9.998;2022-12-07T00:01:04;12.77;;;8.93;;
1350;SDS011;669;50.206;9.998;2022-12-07T00:03:33;12.03;;;8.60;;
1350;SDS011;669;50.206;9.998;2022-12-07T00:06:01;12.00;;;8.60;;
1350;SDS011;669;50.206;9.998;2022-12-07T00:08:31;11.53;;;8.47;;
1350;SDS011;669;50.206;9.998;2022-12-07T00:11:00;9.23;;;7.80;;
1350;SDS011;669;50.206;9.998;2022-12-07T00:13:31;10.10;;;7.33;;
1350;SDS011;669;50.206;9.998;2022-12-07T00:16:00;11.60;;;8.13;;
1350;SDS011;669;50.206;9.998;2022-12-07T00:18:29;13.20;;;8.70;;
1350;SDS011;669;50.206;9.998;2022-12-07T00:21:00;12.20;;;9.10;;
1350;SDS011;669;50.206;9.998;2022-12-07T00:23:29;11.33;;;8.30;;
1350;SDS011;669;50.206;9.998;2022-12-07T00:26:02;11.90;;;7.40;;
1350;SDS011;669;50.206;9.998;2022-12-07T00:28:33;12.03;;;8.60;;
1350;SDS011;669;50.206;9.998;2022-12-07T00:31:02;11.77;;;6.47;;
1350;SDS011;669;50.206;9.998;2022-12-07T00:33:31;9.00;;;7.17;;
1350;SDS011;669;50.206;9.998;2022-12-07T00:35:59;9.97;;;6.80;;
1350;SDS011;669;50.206;9.998;2022-12-07T00:38:28;8.73;;;7.30;;
1350;SDS011;669;50.206;9.998;2022-12-07T00:40:57;9.20;;;7.20;;
1350;SDS011;669;50.206;9.998;2022-12-07T00:43:26;11.37;;;7.70;;
1350;SDS011;669;50.206;9.998;2022-12-07T00:45:55;12.40;;;8.03;;
1350;SDS011;669;50.206;9.998;2022-12-07T00:48:24;11.37;;;7.60;;
1350;SDS011;669;50.206;9.998;2022-12-07T00:50:52;14.67;;;8.23;;
1350;SDS011;669;50.206;9.998;2022-12-07T00:53:20;11.30;;;8.13;;
1350;SDS011;669;50.206;9.998;2022-12-07T00:55:48;10.10;;;7.70;;
1350;SDS011;669;50.206;9.998;2022-12-07T00:58:16;13.00;;;9.30;;
1350;SDS011;669;50.206;9.998;2022-12-07T01:00:44;12.77;;;9.20;;
1350;SDS011;669;50.206;9.998;2022-12-07T01:03:14;17.80;;;9.20;;
1350;SDS011;669;50.206;9.998;2022-12-07T01:05:48;13.30;;;8.63;;
1350;SDS011;669;50.206;9.998;2022-12-07T01:08:17;13.90;;;8.73;;
1350;SDS011;669;50.206;9.998;2022-12-07T01:10:45;13.63;;;9.57;;
1350;SDS011;669;50.206;9.998;2022-12-07T01:13:14;14.23;;;8.70;;
1350;SDS011;669;50.206;9.998;2022-12-07T01:15:43;11.20;;;7.70;;
1350;SDS011;669;50.206;9.998;2022-12-07T01:18:11;12.60;;;8.70;;
1350;SDS011;669;50.206;9.998;2022-12-07T01:20:41;11.73;;;7.93;;
1350;SDS011;669;50.206;9.998;2022-12-07T01:23:08;13.37;;;8.60;;
1350;SDS011;669;50.206;9.998;2022-12-07T01:25:36;14.10;;;9.20;;
1350;SDS011;669;50.206;9.998;2022-12-07T01:28:04;12.43;;;9.07;;
1350;SDS011;669;50.206;9.998;2022-12-07T01:30:32;13.10;;;8.60;;
1350;SDS011;669;50.206;9.998;2022-12-07T01:33:00;16.93;;;9.90;;
1350;SDS011;669;50.206;9.998;2022-12-07T01:35:29;14.63;;;8.70;;
1350;SDS011;669;50.206;9.998;2022-12-07T01:38:01;17.10;;;9.60;;
1350;SDS011;669;50.206;9.998;2022-12-07T01:40:29;12.60;;;9.27;;
1350;SDS011;669;50.206;9.998;2022-12-07T01:42:56;18.07;;;10.37;;
1350;SDS011;669;50.206;9.998;2022-12-07T01:45:34;14.80;;;9.40;;
1350;SDS011;669;50.206;9.998;2022-12-07T01:48:05;14.47;;;9.60;;
1350;SDS011;669;50.206;9.998;2022-12-07T01:50:36;15.63;;;10.00;;
1350;SDS011;669;50.206;9.998;2022-12-07T01:53:06;15.63;;;9.30;;
1350;SDS011;669;50.206;9.998;2022-12-07T01:55:38;12.17;;;9.07;;
1350;SDS011;669;50.206;9.998;2022-12-07T01:58:09;13.37;;;8.70;;
1350;SDS011;669;50.206;9.998;2022-12-07T02:00:38;11.93;;;8.77;;
1350;SDS011;669;50.206;9.998;2022-12-07T02:03:08;13.57;;;9.30;;
1350;SDS011;669;50.206;9.998;2022-12-07T02:05:43;13.73;;;9.70;;
1350;SDS011;669;50.206;9.998;2022-12-07T02:08:12;18.77;;;9.50;;
1350;SDS011;669;50.206;9.998;2022-12-07T02:10:41;20.30;;;9.80;;
1350;SDS011;669;50.206;9.998;2022-12-07T02:13:10;12.53;;;8.93;;
1350;SDS011;669;50.206;9.998;2022-12-07T02:15:54;13.27;;;7.63;;
1350;SDS011;669;50.206;9.998;2022-12-07T02:18:41;15.60;;;10.60;;
1350;SDS011;669;50.206;9.998;2022-12-07T02:21:23;15.97;;;9.27;;
1350;SDS011;669;50.206;9.998;2022-12-07T02:24:19;14.03;;;8.97;;
1350;SDS011;669;50.206;9.998;2022-12-07T02:30:06;14.50;;;8.97;;
1350;SDS011;669;50.206;9.998;2022-12-07T02:32:39;12.73;;;8.37;;
1350;SDS011;669;50.206;9.998;2022-12-07T02:35:11;16.47;;;9.00;;
1350;SDS011;669;50.206;9.998;2022-12-07T02:37:48;11.13;;;7.93;;
1350;SDS011;669;50.206;9.998;2022-12-07T02:40:24;12.70;;;7.60;;
1350;SDS011;669;50.206;9.998;2022-12-07T02:42:57;12.70;;;7.77;;
1350;SDS011;669;50.206;9.998;2022-12-07T02:45:31;12.77;;;7.70;;
1350;SDS011;669;50.206;9.998;2022-12-07T02:48:01;14.20;;;8.90;;
1350;SDS011;669;50.206;9.998;2022-12-07T02:50:31;11.37;;;7.67;;
1350;SDS011;669;50.206;9.998;2022-12-07T02:52:59;10.93;;;7.93;;
1350;SDS011;669;50.206;9.998;2022-12-07T02:55:28;9.73;;;7.30;;
1350;SDS011;669;50.206;9.998;2022-12-07T02:58:06;11.00;;;7.70;;
1350;SDS011;669;50.206;9.998;2022-12-07T03:00:50;14.87;;;9.37;;
1350;SDS011;669;50.206;9.998;2022-12-07T03:03:25;12.73;;;9.63;;
1350;SDS011;669;50.206;9.998;2022-12-07T03:06:06;15.63;;;9.47;;
1350;SDS011;669;50.206;9.998;2022-12-07T03:08:44;15.73;;;9.77;;
1350;SDS011;669;50.206;9.998;2022-12-07T03:11:20;20.87;;;10.40;;
1350;SDS011;669;50.206;9.998;2022-12-07T03:13:55;14.10;;;10.27;;
1350;SDS011;669;50.206;9.998;2022-12-07T03:16:31;14.80;;;9.53;;
1350;SDS011;669;50.206;9.998;2022-12-07T03:19:03;14.70;;;9.40;;
1350;SDS011;669;50.206;9.998;2022-12-07T03:21:38;14.20;;;8.93;;
1350;SDS011;669;50.206;9.998;2022-12-07T03:24:10;16.40;;;9.90;;
1350;SDS011;669;50.206;9.998;2022-12-07T03:26:42;16.17;;;11.47;;
1350;SDS011;669;50.206;9.998;2022-12-07T03:29:17;15.63;;;10.73;;
1350;SDS011;669;50.206;9.998;2022-12-07T03:31:50;13.93;;;9.67;;
1350;SDS011;669;50.206;9.998;2022-12-07T03:34:24;12.07;;;8.63;;
1350;SDS011;669;50.206;9.998;2022-12-07T03:36:59;17.43;;;9.97;;
1350;SDS011;669;50.206;9.998;2022-12-07T03:39:32;15.67;;;10.10;;
1350;SDS011;669;50.206;9.998;2022-12-07T03:42:04;13.43;;;9.20;;
1350;SDS011;669;50.206;9.998;2022-12-07T03:44:34;14.10;;;9.60;;
1350;SDS011;669;50.206;9.998;2022-12-07T03:47:05;18.87;;;9.07;;
1350;SDS011;669;50.206;9.998;2022-12-07T03:49:40;14.30;;;9.53;;
1350;SDS011;669;50.206;9.998;2022-12-07T03:52:12;16.50;;;10.27;;
1350;SDS011;669;50.206;9.998;2022-12-07T03:54:49;13.50;;;9.23;;
1350;SDS011;669;50.206;9.998;2022-12-07T03:57:22;12.67;;;8.33;;
1350;SDS011;669;50.206;9.998;2022-12-07T03:59:53;15.00;;;8.63;;
1350;SDS011;669;50.206;9.998;2022-12-07T04:02:23;13.00;;;8.10;;
1350;SDS011;669;50.206;9.998;2022-12-07T04:04:54;14.60;;;9.80;;
1350;SDS011;669;50.206;9.998;2022-12-07T04:07:22;14.77;;;9.90;;
1350;SDS011;669;50.206;9.998;2022-12-07T04:09:50;13.80;;;10.03;;
1350;SDS011;669;50.206;9.998;2022-12-07T04:12:21;14.13;;;8.27;;
1350;SDS011;669;50.206;9.998;2022-12-07T04:14:49;11.27;;;7.60;;
1350;SDS011;669;50.206;9.998;2022-12-07T04:17:16;12.77;;;8.80;;
1350;SDS011;669;50.206;9.998;2022-12-07T04:19:46;16.03;;;10.63;;
1350;SDS011;669;50.206;9.998;2022-12-07T04:22:14;14.47;;;9.20;;
1350;SDS011;669;50.206;9.998;2022-12-07T04:24:42;14.10;;;9.60;;
1350;SDS011;669;50.206;9.998;2022-12-07T04:27:10;14.50;;;8.60;;
1350;SDS011;669;50.206;9.998;2022-12-07T04:29:38;10.87;;;8.03;;
1350;SDS011;669;50.206;9.998;2022-12-07T04:32:05;15.87;;;8.70;;
1350;SDS011;669;50.206;9.998;2022-12-07T04:34:33;11.33;;;8.57;;
1350;SDS011;669;50.206;9.998;2022-12-07T04:37:03;16.07;;;10.07;;
1350;SDS011;669;50.206;9.998;2022-12-07T04:39:31;15.53;;;8.57;;
1350;SDS011;669;50.206;9.998;2022-12-07T04:42:00;12.00;;;8.63;;
1350;SDS011;669;50.206;9.998;2022-12-07T04:44:29;15.53;;;10.10;;
1350;SDS011;669;50.206;9.998;2022-12-07T04:46:57;11.40;;;8.90;;
1350;SDS011;669;50.206;9.998;2022-12-07T04:49:26;14.47;;;10.17;;
1350;SDS011;669;50.206;9.998;2022-12-07T04:51:54;16.20;;;10.20;;
1350;SDS011;669;50.206;9.998;2022-12-07T04:54:23;16.40;;;10.63;;
1350;SDS011;669;50.206;9.998;2022-12-07T04:56:53;14.90;;;9.57;;
1350;SDS011;669;50.206;9.998;2022-12-07T04:59:22;20.00;;;11.30;;
1350;SDS011;669;50.206;9.998;2022-12-07T05:01:49;18.90;;;10.57;;
1350;SDS011;669;50.206;9.998;2022-12-07T05:04:18;15.73;;;12.50;;
1350;SDS011;669;50.206;9.998;2022-12-07T05:06:45;14.20;;;9.37;;
1350;SDS011;669;50.206;9.998;2022-12-07T05:09:13;17.50;;;10.03;;
1350;SDS011;669;50.206;9.998;2022-12-07T05:11:43;23.13;;;13.00;;
1350;SDS011;669;50.206;9.998;2022-12-07T05:14:12;13.57;;;9.93;;
1350;SDS011;669;50.206;9.998;2022-12-07T05:16:41;14.37;;;9.20;;
1350;SDS011;669;50.206;9.998;2022-12-07T05:19:10;17.73;;;11.27;;
1350;SDS011;669;50.206;9.998;2022-12-07T05:21:39;16.50;;;11.50;;
1350;SDS011;669;50.206;9.998;2022-12-07T05:24:07;19.03;;;11.80;;
1350;SDS011;669;50.206;9.998;2022-12-07T05:26:37;18.03;;;11.67;;
1350;SDS011;669;50.206;9.998;2022-12-07T05:29:07;16.33;;;11.13;;
1350;SDS011;669;50.206;9.998;2022-12-07T05:31:37;18.97;;;11.63;;
1350;SDS011;669;50.206;9.998;2022-12-07T05:34:05;19.70;;;12.17;;
1350;SDS011;669;50.206;9.998;2022-12-07T05:36:33;15.40;;;10.23;;
1350;SDS011;669;50.206;9.998;2022-12-07T05:39:02;16.27;;;11.13;;
1350;SDS011;669;50.206;9.998;2022-12-07T05:41:30;16.70;;;11.30;;
1350;SDS011;669;50.206;9.998;2022-12-07T05:44:16;14.20;;;9.67;;
1350;SDS011;669;50.206;9.998;2022-12-07T05:46:43;18.00;;;10.20;;
1350;SDS011;669;50.206;9.998;2022-12-07T05:49:11;15.07;;;9.80;;
1350;SDS011;669;50.206;9.998;2022-12-07T05:51:40;18.27;;;10.27;;
1350;SDS011;669;50.206;9.998;2022-12-07T05:54:08;12.37;;;9.70;;
1350;SDS011;669;50.206;9.998;2022-12-07T05:56:36;15.20;;;10.07;;
1350;SDS011;669;50.206;9.998;2022-12-07T05:59:04;15.20;;;9.80;;
1350;SDS011;669;50.206;9.998;2022-12-07T06:01:52;15.80;;;10.57;;
1350;SDS011;669;50.206;9.998;2022-12-07T06:04:21;18.10;;;10.40;;
1350;SDS011;669;50.206;9.998;2022-12-07T06:06:50;16.40;;;10.13;;
1350;SDS011;669;50.206;9.998;2022-12-07T06:09:18;15.87;;;10.23;;
1350;SDS011;669;50.206;9.998;2022-12-07T06:11:47;16.00;;;9.70;;
1350;SDS011;669;50.206;9.998;2022-12-07T06:14:33;13.03;;;8.80;;
1350;SDS011;669;50.206;9.998;2022-12-07T06:17:02;13.77;;;8.83;;
1350;SDS011;669;50.206;9.998;2022-12-07T06:19:31;14.23;;;9.43;;
1350;SDS011;669;50.206;9.998;2022-12-07T06:21:59;11.77;;;8.30;;
1350;SDS011;669;50.206;9.998;2022-12-07T06:24:27;11.17;;;8.70;;
1350;SDS011;669;50.206;9.998;2022-12-07T06:26:55;12.07;;;8.20;;
1350;SDS011;669;50.206;9.998;2022-12-07T06:29:22;11.77;;;8.93;;
1350;SDS011;669;50.206;9.998;2022-12-07T06:31:51;14.43;;;7.90;;
1350;SDS011;669;50.206;9.998;2022-12-07T06:34:21;14.93;;;9.10;;
1350;SDS011;669;50.206;9.998;2022-12-07T06:36:50;15.97;;;9.23;;
1350;SDS011;669;50.206;9.998;2022-12-07T06:39:21;12.77;;;8.57;;
1350;SDS011;669;50.206;9.998;2022-12-07T06:41:51;11.63;;;8.20;;
1350;SDS011;669;50.206;9.998;2022-12-07T06:44:20;11.97;;;9.07;;
1350;SDS011;669;50.206;9.998;2022-12-07T06:46:49;15.03;;;9.23;;
1350;SDS011;669;50.206;9.998;2022-12-07T06:49:22;12.30;;;8.30;;
1350;SDS011;669;50.206;9.998;2022-12-07T06:51:50;15.13;;;10.07;;
1350;SDS011;669;50.206;9.998;2022-12-07T06:54:18;14.53;;;9.10;;
1350;SDS011;669;50.206;9.998;2022-12-07T06:56:46;13.23;;;9.00;;
1350;SDS011;669;50.206;9.998;2022-12-07T06:59:14;13.53;;;9.63;;
1350;SDS011;669;50.206;9.998;2022-12-07T07:01:42;11.90;;;8.80;;
1350;SDS011;669;50.206;9.998;2022-12-07T07:04:10;12.50;;;9.63;;
1350;SDS011;669;50.206;9.998;2022-12-07T07:06:40;12.37;;;9.03;;
1350;SDS011;669;50.206;9.998;2022-12-07T07:09:08;12.40;;;9.23;;
1350;SDS011;669;50.206;9.998;2022-12-07T07:11:36;13.13;;;9.17;;
1350;SDS011;669;50.206;9.998;2022-12-07T07:14:04;16.67;;;9.40;;
1350;SDS011;669;50.206;9.998;2022-12-07T07:16:32;13.90;;;9.00;;
1350;SDS011;669;50.206;9.998;2022-12-07T07:19:00;13.30;;;9.73;;
1350;SDS011;669;50.206;9.998;2022-12-07T07:21:28;13.50;;;9.63;;
1350;SDS011;669;50.206;9.998;2022-12-07T07:23:57;13.03;;;9.53;;
1350;SDS011;669;50.206;9.998;2022-12-07T07:26:25;18.67;;;12.80;;
1350;SDS011;669;50.206;9.998;2022-12-07T07:28:53;14.27;;;10.23;;
1350;SDS011;669;50.206;9.998;2022-12-07T07:31:21;14.40;;;9.93;;
1350;SDS011;669;50.206;9.998;2022-12-07T07:33:49;16.67;;;12.00;;
1350;SDS011;669;50.206;9.998;2022-12-07T07:36:17;14.77;;;10.17;;
1350;SDS011;669;50.206;9.998;2022-12-07T07:38:45;21.03;;;11.93;;
1350;SDS011;669;50.206;9.998;2022-12-07T07:41:14;17.23;;;10.47;;
1350;SDS011;669;50.206;9.998;2022-12-07T07:43:42;13.13;;;9.70;;
1350;SDS011;669;50.206;9.998;2022-12-07T07:46:10;16.13;;;10.00;;
1350;SDS011;669;50.206;9.998;2022-12-07T07:48:38;14.10;;;10.10;;
1350;SDS011;669;50.206;9.998;2022-12-07T07:51:06;14.50;;;11.10;;
1350;SDS011;669;50.206;9.998;2022-12-07T07:53:34;14.53;;;10.50;;
1350;SDS011;669;50.206;9.998;2022-12-07T07:56:02;13.50;;;10.93;;
1350;SDS011;669;50.206;9.998;2022-12-07T07:58:36;17.27;;;11.03;;
1350;SDS011;669;50.206;9.998;2022-12-07T08:01:07;14.27;;;11.00;;
1350;SDS011;669;50.206;9.998;2022-12-07T08:03:35;19.07;;;12.37;;
1350;SDS011;669;50.206;9.998;2022-12-07T08:06:04;14.80;;;11.20;;
1350;SDS011;669;50.206;9.998;2022-12-07T08:08:32;14.20;;;10.67;;
1350;SDS011;669;50.206;9.998;2022-12-07T08:11:00;14.00;;;9.70;;
1350;SDS011;669;50.206;9.998;2022-12-07T08:13:28;16.57;;;12.13;;
1350;SDS011;669;50.206;9.998;2022-12-07T08:15:58;17.57;;;10.13;;
1350;SDS011;669;50.206;9.998;2022-12-07T08:18:31;11.47;;;9.43;;
1350;SDS011;669;50.206;9.998;2022-12-07T08:21:02;16.77;;;11.13;;
1350;SDS011;669;50.206;9.998;2022-12-07T08:23:31;14.73;;;9.00;;
1350;SDS011;669;50.206;9.998;2022-12-07T08:26:05;16.70;;;10.40;;
1350;SDS011;669;50.206;9.998;2022-12-07T08:28:35;14.20;;;10.47;;
1350;SDS011;669;50.206;9.998;2022-12-07T08:31:06;19.03;;;12.10;;
1350;SDS011;669;50.206;9.998;2022-12-07T08:33:35;14.53;;;11.00;;
1350;SDS011;669;50.206;9.998;2022-12-07T08:36:04;15.93;;;10.23;;
1350;SDS011;669;50.206;9.998;2022-12-07T08:38:34;15.37;;;10.10;;
1350;SDS011;669;50.206;9.998;2022-12-07T08:41:02;14.43;;;10.47;;
1350;SDS011;669;50.206;9.998;2022-12-07T08:43:31;12.00;;;9.37;;
1350;SDS011;669;50.206;9.998;2022-12-07T08:46:04;13.87;;;10.40;;
1350;SDS011;669;50.206;9.998;2022-12-07T08:48:38;12.43;;;9.37;;
1350;SDS011;669;50.206;9.998;2022-12-07T08:51:08;12.10;;;8.27;;
1350;SDS011;669;50.206;9.998;2022-12-07T08:53:37;10.20;;;7.87;;
1350;SDS011;669;50.206;9.998;2022-12-07T08:56:06;11.87;;;8.80;;
1350;SDS011;669;50.206;9.998;2022-12-07T08:58:34;9.43;;;8.10;;
1350;SDS011;669;50.206;9.998;2022-12-07T09:01:04;11.73;;;8.43;;
1350;SDS011;669;50.206;9.998;2022-12-07T09:03:33;10.90;;;8.30;;
1350;SDS011;669;50.206;9.998;2022-12-07T09:06:01;15.23;;;9.67;;
1350;SDS011;669;50.206;9.998;2022-12-07T09:08:31;9.73;;;7.97;;
1350;SDS011;669;50.206;9.998;2022-12-07T09:11:02;12.07;;;7.57;;
1350;SDS011;669;50.206;9.998;2022-12-07T09:13:30;10.27;;;7.87;;
1350;SDS011;669;50.206;9.998;2022-12-07T09:15:58;12.00;;;7.77;;
1350;SDS011;669;50.206;9.998;2022-12-07T09:18:27;10.00;;;7.17;;
1350;SDS011;669;50.206;9.998;2022-12-07T09:20:56;12.13;;;8.33;;
1350;SDS011;669;50.206;9.998;2022-12-07T09:23:24;12.53;;;8.67;;
1350;SDS011;669;50.206;9.998;2022-12-07T09:25:52;8.93;;;8.03;;
1350;SDS011;669;50.206;9.998;2022-12-07T09:28:20;8.77;;;7.33;;
1350;SDS011;669;50.206;9.998;2022-12-07T09:30:48;8.00;;;6.63;;
1350;SDS011;669;50.206;9.998;2022-12-07T09:33:37;9.20;;;6.90;;
1350;SDS011;669;50.206;9.998;2022-12-07T09:36:06;8.87;;;7.00;;
1350;SDS011;669;50.206;9.998;2022-12-07T09:38:35;18.33;;;8.70;;
1350;SDS011;669;50.206;9.998;2022-12-07T09:41:04;10.20;;;7.10;;
1350;SDS011;669;50.206;9.998;2022-12-07T09:43:33;9.33;;;7.33;;
1350;SDS011;669;50.206;9.998;2022-12-07T09:46:02;6.70;;;5.93;;
1350;SDS011;669;50.206;9.998;2022-12-07T09:48:32;8.83;;;6.20;;
1350;SDS011;669;50.206;9.998;2022-12-07T09:51:02;8.73;;;6.63;;
1350;SDS011;669;50.206;9.998;2022-12-07T09:53:48;7.00;;;6.17;;
1350;SDS011;669;50.206;9.998;2022-12-07T09:56:17;6.90;;;5.97;;
1350;SDS011;669;50.206;9.998;2022-12-07T09:58:46;6.13;;;5.47;;
1350;SDS011;669;50.206;9.998;2022-12-07T10:01:16;8.30;;;6.17;;
1350;SDS011;669;50.206;9.998;2022-12-07T10:03:48;9.63;;;6.30;;
1350;SDS011;669;50.206;9.998;2022-12-07T10:06:19;7.33;;;6.10;;
1350;SDS011;669;50.206;9.998;2022-12-07T10:08:47;8.97;;;6.77;;
1350;SDS011;669;50.206;9.998;2022-12-07T10:11:15;9.57;;;6.83;;
1350;SDS011;669;50.206;9.998;2022-12-07T10:13:44;8.57;;;6.67;;
1350;SDS011;669;50.206;9.998;2022-12-07T10:16:28;6.27;;;5.20;;
1350;SDS011;669;50.206;9.998;2022-12-07T10:19:17;13.27;;;5.80;;
1350;SDS011;669;50.206;9.998;2022-12-07T10:22:00;7.60;;;4.20;;
1350;SDS011;669;50.206;9.998;2022-12-07T10:24:39;6.33;;;5.10;;
1350;SDS011;669;50.206;9.998;2022-12-07T10:27:17;8.77;;;5.80;;
1350;SDS011;669;50.206;9.998;2022-12-07T10:29:48;7.03;;;4.97;;
1350;SDS011;669;50.206;9.998;2022-12-07T10:32:26;7.70;;;5.20;;
1350;SDS011;669;50.206;9.998;2022-12-07T10:37:53;9.93;;;4.73;;
1350;SDS011;669;50.206;9.998;2022-12-07T10:40:32;8.17;;;4.77;;
1350;SDS011;669;50.206;9.998;2022-12-07T10:43:04;7.37;;;4.90;;
1350;SDS011;669;50.206;9.998;2022-12-07T10:45:42;5.47;;;4.13;;
1350;SDS011;669;50.206;9.998;2022-12-07T10:48:30;6.40;;;4.87;;
1350;SDS011;669;50.206;9.998;2022-12-07T10:51:06;5.07;;;4.53;;
1350;SDS011;669;50.206;9.998;2022-12-07T10:53:46;6.80;;;5.40;;
1350;SDS011;669;50.206;9.998;2022-12-07T10:59:22;7.33;;;5.33;;
1350;SDS011;669;50.206;9.998;2022-12-07T11:02:08;8.73;;;5.00;;
1350;SDS011;669;50.206;9.998;2022-12-07T11:04:55;9.77;;;5.70;;
1350;SDS011;669;50.206;9.998;2022-12-07T11:07:37;10.20;;;6.00;;
1350;SDS011;669;50.206;9.998;2022-12-07T11:10:14;6.73;;;5.50;;
1350;SDS011;669;50.206;9.998;2022-12-07T11:13:01;8.37;;;5.13;;
1350;SDS011;669;50.206;9.998;2022-12-07T11:15:42;6.40;;;5.23;;
1350;SDS011;669;50.206;9.998;2022-12-07T11:18:21;6.67;;;5.20;;
1350;SDS011;669;50.206;9.998;2022-12-07T11:20:55;8.23;;;4.97;;
1350;SDS011;669;50.206;9.998;2022-12-07T11:23:37;6.20;;;5.43;;
1350;SDS011;669;50.206;9.998;2022-12-07T11:26:16;6.30;;;4.27;;
1350;SDS011;669;50.206;9.998;2022-12-07T11:28:59;7.20;;;5.00;;
1350;SDS011;669;50.206;9.998;2022-12-07T11:31:45;8.00;;;5.30;;
1350;SDS011;669;50.206;9.998;2022-12-07T11:34:24;6.40;;;5.40;;
1350;SDS011;669;50.206;9.998;2022-12-07T11:37:03;7.20;;;4.90;;
1350;SDS011;669;50.206;9.998;2022-12-07T11:39:39;5.67;;;5.03;;
1350;SDS011;669;50.206;9.998;2022-12-07T11:42:14;6.87;;;4.20;;
1350;SDS011;669;50.206;9.998;2022-12-07T11:44:48;6.07;;;4.70;;
1350;SDS011;669;50.206;9.998;2022-12-07T11:47:22;8.10;;;4.70;;
1350;SDS011;669;50.206;9.998;2022-12-07T11:50:00;9.10;;;4.20;;
1350;SDS011;669;50.206;9.998;2022-12-07T11:52:41;6.57;;;5.10;;
1350;SDS011;669;50.206;9.998;2022-12-07T11:55:15;7.40;;;4.80;;
1350;SDS011;669;50.206;9.998;2022-12-07T11:57:51;5.00;;;4.17;;
1350;SDS011;669;50.206;9.998;2022-12-07T12:00:25;5.33;;;4.17;;
1350;SDS011;669;50.206;9.998;2022-12-07T12:02:55;6.07;;;4.57;;
1350;SDS011;669;50.206;9.998;2022-12-07T12:05:27;6.37;;;4.80;;
1350;SDS011;669;50.206;9.998;2022-12-07T12:07:59;10.40;;;5.97;;
1350;SDS011;669;50.206;9.998;2022-12-07T12:11:00;9.13;;;6.30;;
1350;SDS011;669;50.206;9.998;2022-12-07T12:20:02;6.47;;;5.00;;
1350;SDS011;669;50.206;9.998;2022-12-07T12:22:41;6.03;;;4.10;;
1350;SDS011;669;50.206;9.998;2022-12-07T12:25:15;5.27;;;4.50;;
1350;SDS011;669;50.206;9.998;2022-12-07T12:27:48;10.03;;;6.83;;
1350;SDS011;669;50.206;9.998;2022-12-07T12:30:31;7.93;;;5.63;;
1350;SDS011;669;50.206;9.998;2022-12-07T12:33:03;8.33;;;5.37;;
1350;SDS011;669;50.206;9.998;2022-12-07T12:35:34;10.40;;;4.97;;
1350;SDS011;669;50.206;9.998;2022-12-07T12:40:59;6.00;;;4.20;;
1350;SDS011;669;50.206;9.998;2022-12-07T12:43:49;5.20;;;4.00;;
1350;SDS011;669;50.206;9.998;2022-12-07T12:46:37;4.23;;;3.70;;
1350;SDS011;669;50.206;9.998;2022-12-07T12:55:27;5.90;;;3.00;;
1350;SDS011;669;50.206;9.998;2022-12-07T12:58:22;7.00;;;3.60;;
1350;SDS011;669;50.206;9.998;2022-12-07T13:04:16;5.53;;;2.63;;
1350;SDS011;669;50.206;9.998;2022-12-07T13:06:51;3.70;;;3.40;;
1350;SDS011;669;50.206;9.998;2022-12-07T13:09:20;3.40;;;2.80;;
1350;SDS011;669;50.206;9.998;2022-12-07T13:11:55;4.93;;;2.97;;
1350;SDS011;669;50.206;9.998;2022-12-07T13:14:39;3.70;;;2.40;;
1350;SDS011;669;50.206;9.998;2022-12-07T13:17:09;3.20;;;2.90;;
1350;SDS011;669;50.206;9.998;2022-12-07T13:22:38;5.60;;;3.60;;
1350;SDS011;669;50.206;9.998;2022-12-07T13:25:19;6.50;;;3.23;;
1350;SDS011;669;50.206;9.998;2022-12-07T13:27:55;3.43;;;2.90;;
1350;SDS011;669;50.206;9.998;2022-12-07T13:30:28;8.03;;;3.63;;
1350;SDS011;669;50.206;9.998;2022-12-07T13:32:58;6.60;;;4.00;;
1350;SDS011;669;50.206;9.998;2022-12-07T13:35:33;6.30;;;3.37;;
1350;SDS011;669;50.206;9.998;2022-12-07T13:38:05;12.03;;;7.07;;
1350;SDS011;669;50.206;9.998;2022-12-07T13:40:49;6.17;;;3.87;;
1350;SDS011;669;50.206;9.998;2022-12-07T13:43:27;6.33;;;4.03;;
1350;SDS011;669;50.206;9.998;2022-12-07T13:45:56;5.13;;;3.63;;
1350;SDS011;669;50.206;9.998;2022-12-07T13:48:27;3.90;;;3.43;;
1350;SDS011;669;50.206;9.998;2022-12-07T13:51:00;7.13;;;3.53;;
1350;SDS011;669;50.206;9.998;2022-12-07T13:53:30;6.83;;;3.70;;
1350;SDS011;669;50.206;9.998;2022-12-07T13:55:59;6.87;;;4.83;;
1350;SDS011;669;50.206;9.998;2022-12-07T13:58:30;5.97;;;3.40;;
1350;SDS011;669;50.206;9.998;2022-12-07T14:00:59;4.77;;;3.33;;
1350;SDS011;669;50.206;9.998;2022-12-07T14:03:29;5.23;;;4.40;;
1350;SDS011;669;50.206;9.998;2022-12-07T14:06:04;6.40;;;4.93;;
1350;SDS011;669;50.206;9.998;2022-12-07T14:08:35;7.63;;;4.90;;
1350;SDS011;669;50.206;9.998;2022-12-07T14:11:03;5.63;;;4.80;;
1350;SDS011;669;50.206;9.998;2022-12-07T14:13:32;4.77;;;3.67;;
1350;SDS011;669;50.206;9.998;2022-12-07T14:16:05;3.50;;;2.77;;
1350;SDS011;669;50.206;9.998;2022-12-07T14:18:45;3.97;;;3.37;;
1350;SDS011;669;50.206;9.998;2022-12-07T14:21:15;4.73;;;3.80;;
1350;SDS011;669;50.206;9.998;2022-12-07T14:23:46;3.80;;;3.00;;
1350;SDS011;669;50.206;9.998;2022-12-07T14:26:36;4.10;;;3.53;;
1350;SDS011;669;50.206;9.998;2022-12-07T14:29:18;5.17;;;3.00;;
1350;SDS011;669;50.206;9.998;2022-12-07T14:31:57;5.20;;;3.67;;
1350;SDS011;669;50.206;9.998;2022-12-07T14:34:35;3.13;;;2.70;;
1350;SDS011;669;50.206;9.998;2022-12-07T14:37:03;3.30;;;3.00;;
1350;SDS011;669;50.206;9.998;2022-12-07T14:39:36;5.83;;;3.30;;
1350;SDS011;669;50.206;9.998;2022-12-07T14:42:04;4.33;;;2.80;;
1350;SDS011;669;50.206;9.998;2022-12-07T14:44:32;3.60;;;3.07;;
1350;SDS011;669;50.206;9.998;2022-12-07T14:47:01;5.10;;;3.00;;
1350;SDS011;669;50.206;9.998;2022-12-07T14:49:49;3.03;;;2.60;;
1350;SDS011;669;50.206;9.998;2022-12-07T14:52:18;3.10;;;2.80;;
1350;SDS011;669;50.206;9.998;2022-12-07T14:55:14;7.70;;;3.03;;
1350;SDS011;669;50.206;9.998;2022-12-07T14:57:47;2.80;;;2.60;;
1350;SDS011;669;50.206;9.998;2022-12-07T15:00:17;2.50;;;2.30;;
1350;SDS011;669;50.206;9.998;2022-12-07T15:02:47;3.73;;;2.13;;
1350;SDS011;669;50.206;9.998;2022-12-07T15:05:15;4.10;;;2.57;;
1350;SDS011;669;50.206;9.998;2022-12-07T15:07:45;2.90;;;2.60;;
1350;SDS011;669;50.206;9.998;2022-12-07T15:10:17;3.03;;;2.43;;
1350;SDS011;669;50.206;9.998;2022-12-07T15:12:49;4.60;;;3.57;;
1350;SDS011;669;50.206;9.998;2022-12-07T15:15:17;2.80;;;2.60;;
1350;SDS011;669;50.206;9.998;2022-12-07T15:17:45;4.90;;;2.90;;
1350;SDS011;669;50.206;9.998;2022-12-07T15:20:14;2.70;;;2.40;;
1350;SDS011;669;50.206;9.998;2022-12-07T15:22:43;5.40;;;3.77;;
1350;SDS011;669;50.206;9.998;2022-12-07T15:25:12;3.80;;;3.27;;
1350;SDS011;669;50.206;9.998;2022-12-07T15:27:42;5.50;;;2.83;;
1350;SDS011;669;50.206;9.998;2022-12-07T15:30:10;3.07;;;2.40;;
1350;SDS011;669;50.206;9.998;2022-12-07T15:32:38;3.03;;;2.43;;
1350;SDS011;669;50.206;9.998;2022-12-07T15:35:06;4.77;;;4.27;;
1350;SDS011;669;50.206;9.998;2022-12-07T15:37:35;2.00;;;1.80;;
1350;SDS011;669;50.206;9.998;2022-12-07T15:40:03;2.20;;;1.80;;
1350;SDS011;669;50.206;9.998;2022-12-07T15:42:36;2.20;;;2.00;;
1350;SDS011;669;50.206;9.998;2022-12-07T15:45:07;1.83;;;1.70;;
1350;SDS011;669;50.206;9.998;2022-12-07T15:47:35;1.40;;;1.40;;
1350;SDS011;669;50.206;9.998;2022-12-07T15:50:25;2.67;;;2.37;;
1350;SDS011;669;50.206;9.998;2022-12-07T15:52:53;2.07;;;1.90;;
1350;SDS011;669;50.206;9.998;2022-12-07T15:55:21;2.30;;;2.10;;
1350;SDS011;669;50.206;9.998;2022-12-07T15:57:49;1.60;;;1.50;;
1350;SDS011;669;50.206;9.998;2022-12-07T16:00:19;1.63;;;1.53;;
1350;SDS011;669;50.206;9.998;2022-12-07T16:02:47;2.20;;;1.83;;
1350;SDS011;669;50.206;9.998;2022-12-07T16:05:15;3.33;;;2.00;;
1350;SDS011;669;50.206;9.998;2022-12-07T16:07:43;3.97;;;2.70;;
1350;SDS011;669;50.206;9.998;2022-12-07T16:10:13;2.00;;;1.80;;
1350;SDS011;669;50.206;9.998;2022-12-07T16:12:41;3.80;;;2.20;;
1350;SDS011;669;50.206;9.998;2022-12-07T16:15:09;2.23;;;2.10;;
1350;SDS011;669;50.206;9.998;2022-12-07T16:17:39;1.80;;;1.70;;
1350;SDS011;669;50.206;9.998;2022-12-07T16:20:07;3.10;;;2.40;;